Time;durP1;ratioP1;P1;durP2;ratioP2;P2;SDS_P1;SDS_P2;PMS_P1;PMS_P2;Temp;Humidity;BMP_temperature;BMP_pressure;BME280_temperature;BME280_humidity;BME280_pressure;Samples;Min_cycle;Max_cycle;Signal;HPM_P1;HPM_P2
2021/09/27 00:00:48;;;;;;;3.97;1.65;;;;;;;;;;5047231;28;20728;-68
2021/09/27 00:03:14;;;;;;;5.28;1.67;;;;;;;;;;5052473;28;20045;-67
2021/09/27 00:05:40;;;;;;;3.70;1.45;;;;;;;;;;5051718;28;20063;-66
2021/09/27 00:08:06;;;;;;;3.63;1.27;;;;;;;;;;5049860;28;20066;-66
2021/09/27 00:10:35;;;;;;;4.00;1.23;;;;;;;;;;5046360;28;20099;-67
2021/09/27 00:13:01;;;;;;;4.85;1.80;;;;;;;;;;5049701;28;20040;-66
2021/09/27 00:15:31;;;;;;;4.63;1.55;;;;;;;;;;5049237;28;20044;-65
2021/09/27 00:18:17;;;;;;;7.35;1.50;;;;;;;;;;5011744;28;20046;-65
2021/09/27 00:20:51;;;;;;;5.75;1.77;;;;;;;;;;5016409;28;20040;-66
2021/09/27 00:23:17;;;;;;;3.67;1.52;;;;;;;;;;5026594;28;20030;-65
2021/09/27 00:25:44;;;;;;;6.70;1.83;;;;;;;;;;5010906;28;20037;-65
2021/09/27 00:28:10;;;;;;;3.95;1.38;;;;;;;;;;5010371;28;20086;-64
2021/09/27 00:30:36;;;;;;;4.03;1.50;;;;;;;;;;5010773;28;20077;-66
2021/09/27 00:33:02;;;;;;;3.88;1.20;;;;;;;;;;5014785;28;20064;-66
2021/09/27 00:35:31;;;;;;;6.65;1.20;;;;;;;;;;5011850;28;20136;-68
2021/09/27 00:37:57;;;;;;;3.50;1.27;;;;;;;;;;5014961;28;20883;-67
2021/09/27 00:40:24;;;;;;;9.70;1.60;;;;;;;;;;5002512;28;20553;-66
2021/09/27 00:42:51;;;;;;;5.75;1.60;;;;;;;;;;5015316;28;20044;-67
2021/09/27 00:45:18;;;;;;;3.58;1.13;;;;;;;;;;5012629;28;20046;-66
2021/09/27 00:47:45;;;;;;;3.42;1.33;;;;;;;;;;5012806;28;20064;-62
2021/09/27 00:50:12;;;;;;;4.70;1.63;;;;;;;;;;5010865;28;20034;-66
2021/09/27 00:52:38;;;;;;;5.07;1.40;;;;;;;;;;5013584;28;20137;-66
2021/09/27 00:55:06;;;;;;;4.50;1.30;;;;;;;;;;5023019;28;20124;-65
2021/09/27 00:57:32;;;;;;;9.90;1.38;;;;;;;;;;5052128;28;20108;-67
2021/09/27 00:59:58;;;;;;;2.80;1.00;;;;;;;;;;5055996;28;20120;-66
2021/09/27 01:02:25;;;;;;;5.47;1.40;;;;;;;;;;5048529;28;20125;-65
2021/09/27 01:04:52;;;;;;;3.67;1.55;;;;;;;;;;5050742;28;20044;-66
2021/09/27 01:07:32;;;;;;;4.13;1.42;;;;;;;;;;5051241;28;20103;-65
2021/09/27 01:09:58;;;;;;;5.93;2.65;;;;;;;;;;5050654;28;20095;-66
2021/09/27 01:12:33;;;;;;;8.40;3.35;;;;;;;;;;5051791;28;20512;-64
2021/09/27 01:15:05;;;;;;;4.75;1.67;;;;;;;;;;5031489;28;20047;-64
2021/09/27 01:17:49;;;;;;;8.00;1.48;;;;;;;;;;5039224;28;20056;-65
2021/09/27 01:20:15;;;;;;;4.38;1.38;;;;;;;;;;5049043;28;20144;-64
2021/09/27 01:22:52;;;;;;;3.97;1.33;;;;;;;;;;5047200;28;20420;-65
2021/09/27 01:25:34;;;;;;;4.80;1.67;;;;;;;;;;5046126;28;20047;-65
2021/09/27 01:28:20;;;;;;;4.05;1.38;;;;;;;;;;5047218;28;20136;-64
2021/09/27 01:31:02;;;;;;;9.10;1.55;;;;;;;;;;5008810;28;20048;-66
2021/09/27 01:33:57;;;;;;;3.80;1.30;;;;;;;;;;5047827;28;20068;-66
2021/09/27 01:36:38;;;;;;;4.28;1.40;;;;;;;;;;5031939;28;20304;-65
2021/09/27 01:39:27;;;;;;;4.72;1.45;;;;;;;;;;5047841;28;20043;-65
2021/09/27 01:41:55;;;;;;;5.47;1.63;;;;;;;;;;5036882;28;20122;-65
2021/09/27 01:44:31;;;;;;;6.35;1.80;;;;;;;;;;5044766;28;20146;-67
2021/09/27 01:47:13;;;;;;;3.65;1.30;;;;;;;;;;5045891;28;20059;-64
2021/09/27 01:49:57;;;;;;;4.35;2.08;;;;;;;;;;5049341;28;20036;-65
2021/09/27 01:52:38;;;;;;;9.77;1.70;;;;;;;;;;5049988;28;20048;-66
2021/09/27 01:55:30;;;;;;;4.75;1.60;;;;;;;;;;5048575;28;20408;-64
2021/09/27 01:58:02;;;;;;;9.68;1.90;;;;;;;;;;5047464;28;20044;-63
2021/09/27 02:00:47;;;;;;;6.80;1.60;;;;;;;;;;5044686;28;20041;-63
2021/09/27 02:03:16;;;;;;;15.13;2.45;;;;;;;;;;5046791;28;20055;-63
2021/09/27 02:06:00;;;;;;;11.07;1.77;;;;;;;;;;5047073;28;20037;-63
2021/09/27 02:08:26;;;;;;;4.93;1.77;;;;;;;;;;5033870;28;20052;-63
2021/09/27 02:11:06;;;;;;;5.25;1.65;;;;;;;;;;5051300;28;20044;-63
2021/09/27 02:13:32;;;;;;;7.35;1.70;;;;;;;;;;5051965;28;20096;-63
2021/09/27 02:16:01;;;;;;;5.88;1.58;;;;;;;;;;5052570;28;20164;-63
2021/09/27 02:18:30;;;;;;;10.00;1.55;;;;;;;;;;5049627;28;20140;-62
2021/09/27 02:21:00;;;;;;;5.70;1.60;;;;;;;;;;5033211;28;20132;-62
2021/09/27 02:23:35;;;;;;;4.00;1.50;;;;;;;;;;5046863;28;20037;-63
2021/09/27 02:26:01;;;;;;;5.57;1.40;;;;;;;;;;5050274;28;20036;-62
2021/09/27 02:28:27;;;;;;;4.70;1.73;;;;;;;;;;5049511;28;20068;-61
2021/09/27 02:30:58;;;;;;;9.15;1.60;;;;;;;;;;5049589;28;20047;-64
2021/09/27 02:33:31;;;;;;;5.18;1.45;;;;;;;;;;5047107;28;20041;-64
2021/09/27 02:35:57;;;;;;;;;;;;;;;;;;5045410;28;20036;-65
2021/09/27 02:38:35;;;;;;;17.85;1.50;;;;;;;;;;5045035;28;19916;-63
2021/09/27 02:41:11;;;;;;;5.05;1.33;;;;;;;;;;5046182;28;20048;-65
2021/09/27 02:43:37;;;;;;;5.90;1.63;;;;;;;;;;5047973;28;20075;-64
2021/09/27 02:46:03;;;;;;;7.72;1.25;;;;;;;;;;5038126;28;20079;-64
2021/09/27 02:48:42;;;;;;;5.35;1.83;;;;;;;;;;5008378;28;20037;-63
2021/09/27 02:51:13;;;;;;;6.38;1.50;;;;;;;;;;5028570;28;20060;-63
2021/09/27 02:53:40;;;;;;;8.48;1.65;;;;;;;;;;5025725;28;20651;-63
2021/09/27 02:56:06;;;;;;;5.22;1.70;;;;;;;;;;5024942;28;20091;-63
2021/09/27 02:58:34;;;;;;;6.40;1.75;;;;;;;;;;5025954;28;20128;-64
2021/09/27 03:01:08;;;;;;;4.07;1.63;;;;;;;;;;5027506;28;20046;-63
2021/09/27 03:03:33;;;;;;;6.07;1.70;;;;;;;;;;5026034;28;20041;-64
2021/09/27 03:06:18;;;;;;;4.07;1.80;;;;;;;;;;5029366;28;20044;-64
2021/09/27 03:09:03;;;;;;;3.53;1.67;;;;;;;;;;5027382;28;20052;-64
2021/09/27 03:11:47;;;;;;;4.18;1.90;;;;;;;;;;5025271;28;20106;-64
2021/09/27 03:14:36;;;;;;;8.27;1.90;;;;;;;;;;5025107;28;20053;-63
2021/09/27 03:17:07;;;;;;;7.75;2.30;;;;;;;;;;5030086;28;20033;-64
2021/09/27 03:19:36;;;;;;;7.47;2.28;;;;;;;;;;5029716;28;20979;-64
2021/09/27 03:22:08;;;;;;;9.13;2.40;;;;;;;;;;5032444;28;20099;-63
2021/09/27 03:24:36;;;;;;;4.68;2.30;;;;;;;;;;5031035;28;20048;-65
2021/09/27 03:27:10;;;;;;;6.90;2.38;;;;;;;;;;5029868;28;20053;-64
2021/09/27 03:29:48;;;;;;;11.70;3.20;;;;;;;;;;5029696;28;20038;-65
2021/09/27 03:32:22;;;;;;;7.30;2.50;;;;;;;;;;5029632;28;20060;-62
2021/09/27 03:34:54;;;;;;;7.22;2.78;;;;;;;;;;5000169;28;20029;-63
2021/09/27 03:37:49;;;;;;;8.25;2.97;;;;;;;;;;5010534;28;20511;-63
2021/09/27 03:40:32;;;;;;;12.38;2.70;;;;;;;;;;5011038;28;20618;-63
2021/09/27 03:42:58;;;;;;;6.13;2.15;;;;;;;;;;5029264;28;20049;-63
2021/09/27 03:45:27;;;;;;;6.90;2.15;;;;;;;;;;5033103;28;20114;-63
2021/09/27 03:48:12;;;;;;;4.50;2.05;;;;;;;;;;5048289;28;20056;-64
2021/09/27 03:50:42;;;;;;;7.50;1.83;;;;;;;;;;5049218;28;20531;-62
2021/09/27 03:53:14;;;;;;;3.28;1.45;;;;;;;;;;5050525;28;20159;-62
2021/09/27 03:55:51;;;;;;;6.47;1.52;;;;;;;;;;5049941;28;20096;-61
2021/09/27 03:58:29;;;;;;;7.60;1.83;;;;;;;;;;5050307;28;20049;-62
2021/09/27 04:01:03;;;;;;;8.45;1.80;;;;;;;;;;5050289;28;20065;-63
2021/09/27 04:03:38;;;;;;;4.93;1.75;;;;;;;;;;5050081;28;20048;-62
2021/09/27 04:06:18;;;;;;;6.90;1.60;;;;;;;;;;5050600;28;20044;-62
2021/09/27 04:08:43;;;;;;;3.45;1.50;;;;;;;;;;5049566;28;20129;-62
2021/09/27 04:11:15;;;;;;;4.18;1.65;;;;;;;;;;5047599;28;20119;-63
2021/09/27 04:13:41;;;;;;;9.55;2.10;;;;;;;;;;5047183;28;20079;-62
2021/09/27 04:16:26;;;;;;;4.50;1.73;;;;;;;;;;5048012;28;20135;-62
2021/09/27 04:18:52;;;;;;;5.18;1.83;;;;;;;;;;5050964;28;20056;-62
2021/09/27 04:21:26;;;;;;;4.25;1.80;;;;;;;;;;5049450;28;20036;-62
2021/09/27 04:24:16;;;;;;;8.10;1.77;;;;;;;;;;5047735;28;20044;-62
2021/09/27 04:26:42;;;;;;;5.20;1.75;;;;;;;;;;5047422;28;20060;-62
2021/09/27 04:29:26;;;;;;;6.97;2.38;;;;;;;;;;5048723;28;20113;-62
2021/09/27 04:31:59;;;;;;;7.40;1.88;;;;;;;;;;5049904;28;20077;-62
2021/09/27 04:34:33;;;;;;;5.63;2.22;;;;;;;;;;5048345;28;20098;-63
2021/09/27 04:36:59;;;;;;;5.53;1.80;;;;;;;;;;5049927;28;20938;-63
2021/09/27 04:39:27;;;;;;;4.38;1.98;;;;;;;;;;5050697;28;20055;-61
2021/09/27 04:41:59;;;;;;;5.53;1.88;;;;;;;;;;5049759;28;20052;-62
2021/09/27 04:44:48;;;;;;;4.05;2.03;;;;;;;;;;5050488;28;20047;-62
2021/09/27 04:47:32;;;;;;;3.78;1.75;;;;;;;;;;5038499;28;20532;-63
2021/09/27 04:49:58;;;;;;;4.22;1.70;;;;;;;;;;5052192;28;20271;-61
2021/09/27 04:52:49;;;;;;;5.35;1.88;;;;;;;;;;5051624;28;20033;-62
2021/09/27 04:55:53;;;;;;;5.35;1.80;;;;;;;;;;5052960;28;20063;-62
2021/09/27 04:58:19;;;;;;;6.85;2.30;;;;;;;;;;4978478;28;20034;-62
2021/09/27 05:00:57;;;;;;;6.82;2.30;;;;;;;;;;4993666;28;20038;-62
2021/09/27 05:03:38;;;;;;;7.25;2.47;;;;;;;;;;5027088;28;20809;-62
2021/09/27 05:06:07;;;;;;;10.70;2.50;;;;;;;;;;5052224;28;20060;-63
2021/09/27 05:08:45;;;;;;;6.55;2.50;;;;;;;;;;5050872;28;20048;-63
2021/09/27 05:11:26;;;;;;;6.75;2.67;;;;;;;;;;5053747;28;20071;-62
2021/09/27 05:13:52;;;;;;;5.95;2.28;;;;;;;;;;5050614;28;20461;-62
2021/09/27 05:16:30;;;;;;;6.57;2.25;;;;;;;;;;5051145;28;20029;-63
2021/09/27 05:19:15;;;;;;;7.22;2.90;;;;;;;;;;5049611;28;20045;-63
2021/09/27 05:21:56;;;;;;;6.43;2.35;;;;;;;;;;5048998;28;20032;-61
2021/09/27 05:24:40;;;;;;;7.35;2.70;;;;;;;;;;5047877;28;20059;-61
2021/09/27 05:27:24;;;;;;;8.07;2.50;;;;;;;;;;5049132;28;20138;-59
2021/09/27 05:29:59;;;;;;;5.72;2.50;;;;;;;;;;5051505;28;20037;-61
2021/09/27 05:32:33;;;;;;;6.32;2.80;;;;;;;;;;5051051;28;20041;-60
2021/09/27 05:34:58;;;;;;;;;;;;;;;;;;5052667;28;20040;-62
2021/09/27 05:37:42;;;;;;;9.35;3.10;;;;;;;;;;5050953;28;19923;-60
2021/09/27 05:40:11;;;;;;;9.48;2.90;;;;;;;;;;5047669;28;20493;-60
2021/09/27 05:42:46;;;;;;;10.63;2.95;;;;;;;;;;5050551;28;20125;-63
2021/09/27 05:45:30;;;;;;;7.95;2.78;;;;;;;;;;5053442;28;20036;-61
2021/09/27 05:48:02;;;;;;;8.82;3.10;;;;;;;;;;5052087;28;20060;-60
2021/09/27 05:50:27;;;;;;;8.63;2.97;;;;;;;;;;5050391;28;20060;-61
2021/09/27 05:52:53;;;;;;;7.47;3.22;;;;;;;;;;5051741;28;20080;-61
2021/09/27 05:55:32;;;;;;;6.20;2.67;;;;;;;;;;5050683;28;20032;-62
2021/09/27 05:58:03;;;;;;;7.00;3.00;;;;;;;;;;5051357;28;20504;-62
2021/09/27 06:00:41;;;;;;;6.97;3.25;;;;;;;;;;5053812;28;20051;-62
2021/09/27 06:03:09;;;;;;;8.30;3.25;;;;;;;;;;5056640;28;20052;-62
2021/09/27 06:05:54;;;;;;;7.53;3.08;;;;;;;;;;5053402;28;20427;-62
2021/09/27 06:08:31;;;;;;;7.80;3.17;;;;;;;;;;5051279;28;20052;-61
2021/09/27 06:10:57;;;;;;;13.82;3.35;;;;;;;;;;5051039;28;20068;-62
2021/09/27 06:13:26;;;;;;;19.63;3.60;;;;;;;;;;5052246;28;20067;-62
2021/09/27 06:15:54;;;;;;;8.95;3.63;;;;;;;;;;5034452;28;20040;-62
2021/09/27 06:18:59;;;;;;;8.55;2.75;;;;;;;;;;5052234;28;20044;-61
2021/09/27 06:21:43;;;;;;;11.02;3.25;;;;;;;;;;4951032;28;20934;-62
2021/09/27 06:24:24;;;;;;;11.20;3.30;;;;;;;;;;4949440;28;20126;-61
2021/09/27 06:26:55;;;;;;;10.50;3.65;;;;;;;;;;5018455;28;20075;-62
2021/09/27 06:29:36;;;;;;;7.18;2.83;;;;;;;;;;5050189;28;20096;-62
2021/09/27 06:32:05;;;;;;;7.38;2.92;;;;;;;;;;5049979;28;20397;-61
2021/09/27 06:34:39;;;;;;;6.65;3.00;;;;;;;;;;5048035;28;20094;-62
2021/09/27 06:37:05;;;;;;;8.15;2.83;;;;;;;;;;5051492;28;20115;-61
2021/09/27 06:39:31;;;;;;;8.80;3.35;;;;;;;;;;5047715;28;20220;-62
2021/09/27 06:41:57;;;;;;;14.10;2.55;;;;;;;;;;5048206;28;20040;-62
2021/09/27 06:44:24;;;;;;;6.63;2.20;;;;;;;;;;5048601;28;20044;-62
2021/09/27 06:46:51;;;;;;;6.63;2.60;;;;;;;;;;5050889;28;20063;-62
2021/09/27 06:49:17;;;;;;;9.75;2.80;;;;;;;;;;5048178;28;20033;-62
2021/09/27 06:51:44;;;;;;;9.25;2.63;;;;;;;;;;5049785;28;20029;-62
2021/09/27 06:54:18;;;;;;;6.00;2.40;;;;;;;;;;5036460;28;20041;-62
2021/09/27 06:56:48;;;;;;;5.03;2.25;;;;;;;;;;5051313;28;20037;-61
2021/09/27 06:59:15;;;;;;;5.38;1.98;;;;;;;;;;5050857;28;20036;-61
2021/09/27 07:01:41;;;;;;;4.63;1.90;;;;;;;;;;5032476;28;20044;-60
2021/09/27 07:04:07;;;;;;;7.63;2.10;;;;;;;;;;5054432;28;20074;-61
2021/09/27 07:06:33;;;;;;;5.75;2.20;;;;;;;;;;5051577;28;20121;-61
2021/09/27 07:08:59;;;;;;;7.45;2.00;;;;;;;;;;5051690;28;20124;-60
2021/09/27 07:11:25;;;;;;;4.00;1.83;;;;;;;;;;5050320;28;20037;-60
2021/09/27 07:13:51;;;;;;;5.15;1.90;;;;;;;;;;5053127;28;20041;-60
2021/09/27 07:16:17;;;;;;;4.53;1.85;;;;;;;;;;5056868;28;20036;-61
2021/09/27 07:18:43;;;;;;;5.03;2.15;;;;;;;;;;5052818;28;20524;-61
2021/09/27 07:21:09;;;;;;;4.80;1.98;;;;;;;;;;5052453;28;20071;-60
2021/09/27 07:23:38;;;;;;;5.15;2.13;;;;;;;;;;5053274;28;20546;-60
2021/09/27 07:26:09;;;;;;;7.35;2.50;;;;;;;;;;5053965;28;20051;-61
2021/09/27 07:28:35;;;;;;;4.95;2.20;;;;;;;;;;5051021;28;21073;-61
2021/09/27 07:31:00;;;;;;;4.88;2.15;;;;;;;;;;5051278;28;20048;-60
2021/09/27 07:33:28;;;;;;;6.30;1.88;;;;;;;;;;5051966;28;20523;-61
2021/09/27 07:35:55;;;;;;;5.80;1.75;;;;;;;;;;5053505;28;20064;-60
2021/09/27 07:38:21;;;;;;;4.53;1.90;;;;;;;;;;5051630;28;20090;-60
2021/09/27 07:40:47;;;;;;;5.25;2.22;;;;;;;;;;5032634;28;20056;-61
2021/09/27 07:43:13;;;;;;;8.02;2.08;;;;;;;;;;5035065;28;20870;-61
2021/09/27 07:45:39;;;;;;;7.70;2.17;;;;;;;;;;5052381;28;20044;-61
2021/09/27 07:48:06;;;;;;;9.95;2.40;;;;;;;;;;5052497;28;20479;-61
2021/09/27 07:50:34;;;;;;;5.18;2.08;;;;;;;;;;5052539;28;20036;-61
2021/09/27 07:53:00;;;;;;;4.78;2.00;;;;;;;;;;5054985;28;20044;-62
2021/09/27 07:55:26;;;;;;;4.28;1.70;;;;;;;;;;5057285;28;20369;-61
2021/09/27 07:57:52;;;;;;;4.60;1.52;;;;;;;;;;5058350;28;20048;-62
2021/09/27 08:00:18;;;;;;;5.25;1.60;;;;;;;;;;5061475;28;20108;-60
2021/09/27 08:02:45;;;;;;;3.45;1.45;;;;;;;;;;5059807;28;20037;-60
2021/09/27 08:05:12;;;;;;;5.25;1.30;;;;;;;;;;5056937;28;20420;-60
2021/09/27 08:07:38;;;;;;;4.82;1.60;;;;;;;;;;5055557;28;20060;-59
2021/09/27 08:10:05;;;;;;;5.05;1.80;;;;;;;;;;5054271;28;20044;-58
2021/09/27 08:12:31;;;;;;;7.75;1.42;;;;;;;;;;5052414;28;20098;-60
2021/09/27 08:14:57;;;;;;;3.25;1.25;;;;;;;;;;5052314;28;20041;-60
2021/09/27 08:17:23;;;;;;;3.65;1.40;;;;;;;;;;5048725;28;20051;-61
2021/09/27 08:19:49;;;;;;;6.00;1.30;;;;;;;;;;5049847;28;20037;-62
2021/09/27 08:22:15;;;;;;;4.10;1.25;;;;;;;;;;5050025;28;20036;-59
2021/09/27 08:24:41;;;;;;;3.70;1.27;;;;;;;;;;5051354;28;20048;-60
2021/09/27 08:27:07;;;;;;;3.45;1.00;;;;;;;;;;5050553;28;20037;-60
2021/09/27 08:29:33;;;;;;;4.57;1.15;;;;;;;;;;5049943;28;20155;-62
2021/09/27 08:31:59;;;;;;;3.30;1.33;;;;;;;;;;5051121;28;20127;-60
2021/09/27 08:34:25;;;;;;;2.80;0.90;;;;;;;;;;5048891;28;20069;-61
2021/09/27 08:36:51;;;;;;;2.70;0.90;;;;;;;;;;5049760;28;20047;-61
2021/09/27 08:39:18;;;;;;;4.15;1.02;;;;;;;;;;5049025;28;20052;-60
2021/09/27 08:41:44;;;;;;;3.72;1.27;;;;;;;;;;5053383;28;20928;-62
2021/09/27 08:44:10;;;;;;;3.35;1.08;;;;;;;;;;5055508;28;20488;-61
2021/09/27 08:46:41;;;;;;;3.78;1.30;;;;;;;;;;5054361;28;20045;-62
2021/09/27 08:49:25;;;;;;;2.83;1.05;;;;;;;;;;5050902;28;20037;-62
2021/09/27 08:51:51;;;;;;;2.70;0.93;;;;;;;;;;5050736;28;20037;-62
2021/09/27 08:54:20;;;;;;;3.08;1.05;;;;;;;;;;5050598;28;20444;-61
2021/09/27 08:56:53;;;;;;;6.30;1.23;;;;;;;;;;5031433;28;20044;-60
2021/09/27 08:59:25;;;;;;;3.03;1.15;;;;;;;;;;5049205;28;20047;-62
2021/09/27 09:01:54;;;;;;;3.67;1.00;;;;;;;;;;5052357;28;20043;-64
2021/09/27 09:04:43;;;;;;;3.78;1.17;;;;;;;;;;5049798;28;20059;-62
2021/09/27 09:07:19;;;;;;;2.83;1.00;;;;;;;;;;5017578;28;20033;-61
2021/09/27 09:09:54;;;;;;;4.82;1.30;;;;;;;;;;5049172;28;20099;-61
2021/09/27 09:12:24;;;;;;;3.20;1.20;;;;;;;;;;5051326;28;20045;-60
2021/09/27 09:15:00;;;;;;;5.13;0.90;;;;;;;;;;5050715;28;20041;-61
2021/09/27 09:17:26;;;;;;;3.70;0.93;;;;;;;;;;5049695;28;20408;-61
2021/09/27 09:19:51;;;;;;;2.20;0.73;;;;;;;;;;5048692;28;20045;-60
2021/09/27 09:22:37;;;;;;;2.88;0.75;;;;;;;;;;5052472;28;20036;-60
2021/09/27 09:25:10;;;;;;;3.50;1.25;;;;;;;;;;5050658;28;20062;-60
2021/09/27 09:27:36;;;;;;;2.78;0.98;;;;;;;;;;5051524;28;20040;-60
2021/09/27 09:30:03;;;;;;;2.38;0.75;;;;;;;;;;5050133;28;20146;-60
2021/09/27 09:32:31;;;;;;;2.88;1.00;;;;;;;;;;5049254;28;20045;-60
2021/09/27 09:35:16;;;;;;;2.30;0.77;;;;;;;;;;5048359;28;20131;-61
2021/09/27 09:37:46;;;;;;;2.30;0.82;;;;;;;;;;5050315;28;20071;-60
2021/09/27 09:40:26;;;;;;;2.28;0.70;;;;;;;;;;5051985;28;20032;-61
2021/09/27 09:43:10;;;;;;;4.25;0.80;;;;;;;;;;5050492;28;20163;-61
2021/09/27 09:45:35;;;;;;;;;;;;;;;;;;5050337;28;20460;-60
2021/09/27 09:48:19;;;;;;;2.83;0.90;;;;;;;;;;5051881;28;19924;-60
2021/09/27 09:50:46;;;;;;;3.53;1.20;;;;;;;;;;5048934;28;20033;-60
2021/09/27 09:53:17;;;;;;;4.75;1.10;;;;;;;;;;5050522;28;20047;-61
2021/09/27 09:55:44;;;;;;;3.15;1.05;;;;;;;;;;5050602;28;20071;-60
2021/09/27 09:58:28;;;;;;;2.95;1.00;;;;;;;;;;5051694;28;20060;-61
2021/09/27 10:00:53;;;;;;;;;;;;;;;;;;5049390;28;20040;-61
2021/09/27 10:03:20;;;;;;;3.92;0.90;;;;;;;;;;5048830;28;19920;-61
2021/09/27 10:05:54;;;;;;;2.40;0.68;;;;;;;;;;5051148;28;20704;-61
2021/09/27 10:08:21;;;;;;;2.47;0.90;;;;;;;;;;5050400;28;20559;-61
2021/09/27 10:10:55;;;;;;;3.88;1.20;;;;;;;;;;5050613;28;20050;-60
2021/09/27 10:13:26;;;;;;;2.80;1.10;;;;;;;;;;5050144;28;20049;-61
2021/09/27 10:15:52;;;;;;;2.55;0.82;;;;;;;;;;5051562;28;20127;-59
2021/09/27 10:18:28;;;;;;;3.35;1.17;;;;;;;;;;5050734;28;20131;-61
2021/09/27 10:21:06;;;;;;;2.90;1.08;;;;;;;;;;5047011;28;20059;-60
2021/09/27 10:23:40;;;;;;;3.10;1.10;;;;;;;;;;5047326;28;20040;-61
2021/09/27 10:26:41;;;;;;;3.78;1.13;;;;;;;;;;5050001;28;20045;-61
2021/09/27 10:29:12;;;;;;;3.35;0.98;;;;;;;;;;4978853;28;20136;-61
2021/09/27 10:31:39;;;;;;;3.25;1.10;;;;;;;;;;5038269;28;20057;-61
2021/09/27 10:34:10;;;;;;;5.47;1.10;;;;;;;;;;5054341;28;20425;-61
2021/09/27 10:36:43;;;;;;;3.35;1.02;;;;;;;;;;5054838;28;20509;-61
2021/09/27 10:39:11;;;;;;;4.35;1.23;;;;;;;;;;5054484;28;20048;-60
2021/09/27 10:41:40;;;;;;;3.38;1.08;;;;;;;;;;5053298;28;20405;-61
2021/09/27 10:44:12;;;;;;;5.03;1.05;;;;;;;;;;5053812;28;20029;-62
2021/09/27 10:46:39;;;;;;;2.60;0.80;;;;;;;;;;5054309;28;20094;-61
2021/09/27 10:49:06;;;;;;;2.75;0.88;;;;;;;;;;5052057;28;20064;-61
2021/09/27 10:51:38;;;;;;;2.95;0.80;;;;;;;;;;5053901;28;20033;-61
2021/09/27 10:54:22;;;;;;;4.28;1.10;;;;;;;;;;5057893;28;20029;-61
2021/09/27 10:56:49;;;;;;;4.40;0.98;;;;;;;;;;5056931;28;20044;-61
2021/09/27 10:59:35;;;;;;;2.97;1.00;;;;;;;;;;5055179;28;20170;-61
2021/09/27 11:02:07;;;;;;;3.10;0.93;;;;;;;;;;5051159;28;20040;-61
2021/09/27 11:04:35;;;;;;;2.60;1.00;;;;;;;;;;5054882;28;20059;-61
2021/09/27 11:07:12;;;;;;;3.20;1.08;;;;;;;;;;5056122;28;20029;-62
2021/09/27 11:09:38;;;;;;;6.35;0.90;;;;;;;;;;5056343;28;20072;-62
2021/09/27 11:12:11;;;;;;;5.75;1.13;;;;;;;;;;5056739;28;20120;-61
2021/09/27 11:14:40;;;;;;;3.13;1.08;;;;;;;;;;5054911;28;20492;-61
2021/09/27 11:17:06;;;;;;;3.05;0.93;;;;;;;;;;5059789;28;20085;-62
2021/09/27 11:19:32;;;;;;;3.70;0.98;;;;;;;;;;5055592;28;20036;-63
2021/09/27 11:22:21;;;;;;;2.42;0.95;;;;;;;;;;5055477;28;20500;-63
2021/09/27 11:25:02;;;;;;;3.40;0.90;;;;;;;;;;5003803;28;20036;-62
2021/09/27 11:27:35;;;;;;;3.47;1.13;;;;;;;;;;5052498;28;20045;-59
2021/09/27 11:30:20;;;;;;;3.22;0.90;;;;;;;;;;5042865;28;20040;-60
2021/09/27 11:32:50;;;;;;;4.45;1.30;;;;;;;;;;5051615;28;20040;-61
2021/09/27 11:35:22;;;;;;;4.00;1.25;;;;;;;;;;5055706;28;20641;-61
2021/09/27 11:37:47;;;;;;;5.40;1.20;;;;;;;;;;5050299;28;20049;-62
2021/09/27 11:40:25;;;;;;;3.45;1.30;;;;;;;;;;5055370;28;20043;-62
2021/09/27 11:42:51;;;;;;;3.85;1.30;;;;;;;;;;5055402;28;20033;-62
2021/09/27 11:45:42;;;;;;;3.60;1.40;;;;;;;;;;5055038;28;20072;-61
2021/09/27 11:48:32;;;;;;;4.20;1.00;;;;;;;;;;5053785;28;20071;-61
2021/09/27 11:51:07;;;;;;;3.75;1.42;;;;;;;;;;5052949;28;20374;-62
2021/09/27 11:53:36;;;;;;;4.82;1.60;;;;;;;;;;5052854;28;20040;-61
2021/09/27 11:56:10;;;;;;;3.72;1.52;;;;;;;;;;5053996;28;20047;-60
2021/09/27 11:59:02;;;;;;;4.82;1.52;;;;;;;;;;5051078;28;20048;-61
2021/09/27 12:01:47;;;;;;;5.05;1.80;;;;;;;;;;5047040;28;20037;-61
2021/09/27 12:04:21;;;;;;;5.65;1.73;;;;;;;;;;5052670;28;20041;-60
2021/09/27 12:06:49;;;;;;;6.82;2.08;;;;;;;;;;5050986;28;20051;-62
2021/09/27 12:09:23;;;;;;;6.88;2.10;;;;;;;;;;5033446;28;20501;-62
2021/09/27 12:11:53;;;;;;;5.90;2.10;;;;;;;;;;5052488;28;20140;-62
2021/09/27 12:14:21;;;;;;;7.90;2.13;;;;;;;;;;5053413;28;20029;-64
2021/09/27 12:16:49;;;;;;;4.63;1.88;;;;;;;;;;5054506;28;20037;-64
2021/09/27 12:19:15;;;;;;;4.88;2.10;;;;;;;;;;5053115;28;20053;-61
2021/09/27 12:21:43;;;;;;;5.60;1.70;;;;;;;;;;5053380;28;20380;-62
2021/09/27 12:24:19;;;;;;;7.63;1.80;;;;;;;;;;5053323;28;20070;-60
2021/09/27 12:26:54;;;;;;;5.88;1.83;;;;;;;;;;5052739;28;20060;-61
2021/09/27 12:29:24;;;;;;;6.25;1.63;;;;;;;;;;5048790;28;20040;-62
2021/09/27 12:31:53;;;;;;;6.13;2.05;;;;;;;;;;5050130;28;20036;-61
2021/09/27 12:34:21;;;;;;;4.72;1.75;;;;;;;;;;5051735;28;20040;-61
2021/09/27 12:36:48;;;;;;;8.50;2.17;;;;;;;;;;5051506;28;20091;-61
2021/09/27 12:39:13;;;;;;;7.68;1.67;;;;;;;;;;5051514;28;20052;-62
2021/09/27 12:41:40;;;;;;;9.00;3.50;;;;;;;;;;5051101;28;20099;-60
2021/09/27 12:44:11;;;;;;;5.95;2.33;;;;;;;;;;5051795;28;20421;-60
2021/09/27 12:46:38;;;;;;;7.20;2.33;;;;;;;;;;5038393;28;20057;-61
2021/09/27 12:49:07;;;;;;;8.82;2.20;;;;;;;;;;5016549;28;20091;-59
2021/09/27 12:51:39;;;;;;;8.20;2.50;;;;;;;;;;5033459;28;20073;-60
2021/09/27 12:54:08;;;;;;;11.45;1.95;;;;;;;;;;5036370;28;20037;-57
2021/09/27 12:56:34;;;;;;;4.30;1.60;;;;;;;;;;5033033;28;20080;-59
2021/09/27 12:59:28;;;;;;;6.38;1.80;;;;;;;;;;5034153;28;20501;-60
2021/09/27 13:02:06;;;;;;;6.82;1.88;;;;;;;;;;5032691;28;20584;-60
2021/09/27 13:04:34;;;;;;;4.38;1.60;;;;;;;;;;5030071;28;20678;-59
2021/09/27 13:06:59;;;;;;;11.52;2.35;;;;;;;;;;5020198;28;20053;-60
2021/09/27 13:09:28;;;;;;;12.23;2.00;;;;;;;;;;5032771;28;20037;-62
2021/09/27 13:12:12;;;;;;;8.35;1.95;;;;;;;;;;5056411;28;20101;-61
2021/09/27 13:14:42;;;;;;;11.52;2.53;;;;;;;;;;5055327;28;21717;-63
2021/09/27 13:17:22;;;;;;;8.00;2.13;;;;;;;;;;5056020;28;20037;-62
2021/09/27 13:19:49;;;;;;;7.00;2.10;;;;;;;;;;5053917;28;20036;-62
2021/09/27 13:22:23;;;;;;;13.70;2.88;;;;;;;;;;5061088;28;20036;-62
2021/09/27 13:25:00;;;;;;;11.40;2.15;;;;;;;;;;5060141;28;20087;-61
2021/09/27 13:27:31;;;;;;;17.15;2.30;;;;;;;;;;5062096;28;20096;-62
2021/09/27 13:30:05;;;;;;;6.70;1.42;;;;;;;;;;5061115;28;20040;-62
2021/09/27 13:32:34;;;;;;;5.95;1.48;;;;;;;;;;5056980;28;20757;-61
2021/09/27 13:35:18;;;;;;;3.47;1.00;;;;;;;;;;5055654;28;20178;-61
2021/09/27 13:38:13;;;;;;;4.78;1.27;;;;;;;;;;5053353;28;20053;-63
2021/09/27 13:40:42;;;;;;;5.38;1.33;;;;;;;;;;5031271;28;20028;-61
2021/09/27 13:43:17;;;;;;;4.57;1.25;;;;;;;;;;5055371;28;20080;-61
2021/09/27 13:45:43;;;;;;;2.80;0.82;;;;;;;;;;5058818;28;20044;-61
2021/09/27 13:48:09;;;;;;;8.48;1.98;;;;;;;;;;5061541;28;20553;-62
2021/09/27 13:50:37;;;;;;;5.25;1.23;;;;;;;;;;5057245;28;20067;-61
2021/09/27 13:53:11;;;;;;;3.38;1.17;;;;;;;;;;5070010;28;20047;-61
2021/09/27 13:55:38;;;;;;;5.30;1.30;;;;;;;;;;5072270;28;20137;-60
2021/09/27 13:58:04;;;;;;;6.18;1.45;;;;;;;;;;5071168;28;20044;-61
2021/09/27 14:00:29;;;;;;;6.00;1.52;;;;;;;;;;5070214;28;20067;-62
2021/09/27 14:02:55;;;;;;;11.32;1.95;;;;;;;;;;5050352;28;20361;-65
2021/09/27 14:05:21;;;;;;;16.50;1.75;;;;;;;;;;5065823;28;20043;-60
2021/09/27 14:07:47;;;;;;;9.48;1.60;;;;;;;;;;5070632;28;20585;-62
2021/09/27 14:10:13;;;;;;;7.03;1.55;;;;;;;;;;5071043;28;20032;-62
2021/09/27 14:12:39;;;;;;;6.38;1.40;;;;;;;;;;5071096;28;20055;-61
2021/09/27 14:15:06;;;;;;;7.05;1.58;;;;;;;;;;5071087;28;20040;-61
2021/09/27 14:17:31;;;;;;;6.60;1.88;;;;;;;;;;5051426;28;20581;-59
2021/09/27 14:19:57;;;;;;;5.45;1.70;;;;;;;;;;5072286;28;20040;-63
2021/09/27 14:22:24;;;;;;;8.43;1.83;;;;;;;;;;5069918;28;20040;-61
2021/09/27 14:24:50;;;;;;;6.50;1.77;;;;;;;;;;5059108;28;20147;-62
2021/09/27 14:27:16;;;;;;;7.20;1.75;;;;;;;;;;5072029;28;20139;-58
2021/09/27 14:29:42;;;;;;;8.57;1.90;;;;;;;;;;5070371;28;20040;-61
2021/09/27 14:32:08;;;;;;;5.90;1.70;;;;;;;;;;5072809;28;20044;-60
2021/09/27 14:34:34;;;;;;;7.22;1.48;;;;;;;;;;5071170;28;20565;-62
2021/09/27 14:37:00;;;;;;;15.60;1.90;;;;;;;;;;5070804;28;20916;-61
2021/09/27 14:39:26;;;;;;;13.20;1.90;;;;;;;;;;5070396;28;20051;-63
2021/09/27 14:41:52;;;;;;;8.60;1.90;;;;;;;;;;5068848;28;20036;-62
2021/09/27 14:44:18;;;;;;;7.53;1.50;;;;;;;;;;5068589;28;20041;-61
2021/09/27 14:46:46;;;;;;;11.07;1.52;;;;;;;;;;5068939;28;20131;-61
2021/09/27 14:49:12;;;;;;;4.28;1.25;;;;;;;;;;5069977;28;20097;-60
2021/09/27 14:51:38;;;;;;;7.68;1.00;;;;;;;;;;5070053;28;20044;-61
2021/09/27 14:54:04;;;;;;;6.00;0.85;;;;;;;;;;5069476;28;20039;-60
2021/09/27 14:56:29;;;;;;;2.97;1.00;;;;;;;;;;5057084;28;20040;-60
2021/09/27 14:58:56;;;;;;;3.97;0.88;;;;;;;;;;5069017;28;20807;-60
2021/09/27 15:01:22;;;;;;;4.95;1.00;;;;;;;;;;5053732;28;20039;-60
2021/09/27 15:03:51;;;;;;;5.60;0.93;;;;;;;;;;5071958;28;20032;-62
2021/09/27 15:06:19;;;;;;;10.80;1.13;;;;;;;;;;5075440;28;20041;-62
2021/09/27 15:08:44;;;;;;;3.35;0.98;;;;;;;;;;5074282;28;20040;-62
2021/09/27 15:11:10;;;;;;;5.43;1.05;;;;;;;;;;5077984;28;20043;-62